Cavok V — PB7130 — position and weather

sailwx.info

Track history (hours):
 
Tides and Currents Weather Stations Pressure Air Temp Water Temp Dewpoint Dewpoint Depression Visibility Wind Speed Wind Dir Waves Ship Positions

Cavok V

Last reported at 2017-Apr-06 18:00 UTC. Time now 2017-Jul-26 10:29 UTC.
Position N 51°16' E 003°50'.
Warning: this ship's position is months out of date.

Type: Sailing vessel. MMSI: 244690846.

Date/timePositionNaut miles runAvg speedWind from/ knotsBaromVisibWave heightAir tempDewpointWater temp
2017-Apr-06 18:00N 51°16' E 003°50'0 0.0
2017-Apr-06 17:30N 51°16' E 003°50'0 0.0
2017-Apr-06 17:00N 51°16' E 003°50'0 0.1
2017-Apr-06 15:27N 51°16' E 003°50'0 0.0
2017-Apr-06 14:56N 51°16' E 003°50'0 0.2
2017-Apr-06 14:27N 51°16' E 003°50'0 0.0
2017-Apr-06 13:30N 51°16' E 003°50'0 0.0
2017-Apr-05 15:12N 51°16' E 003°50'0 0.0
2017-Apr-05 14:58N 51°16' E 003°50'0 0.0
2017-Apr-05 14:00N 51°16' E 003°50'0 0.0
2017-Apr-05 13:30N 51°16' E 003°50'0 0.0
2017-Apr-05 13:00N 51°16' E 003°50'0 0.0
2017-Apr-05 12:29N 51°16' E 003°50'0 0.0
2017-Apr-05 12:00N 51°16' E 003°50'0 0.0
2017-Apr-05 11:30N 51°16' E 003°50'0 0.0
2017-Apr-05 11:00N 51°16' E 003°50'0 0.0
2017-Apr-05 10:30N 51°16' E 003°50'0 0.0
2017-Apr-05 10:00N 51°16' E 003°50'0 0.0
2017-Apr-05 09:30N 51°16' E 003°50'0 0.0
2017-Apr-05 09:00N 51°16' E 003°50'0 0.0
2017-Apr-05 08:30N 51°16' E 003°50'0 0.0
2017-Apr-05 08:00N 51°16' E 003°50'0 0.0
2017-Apr-05 07:30N 51°16' E 003°50'0 0.0
2017-Apr-05 07:00N 51°16' E 003°50'0 0.0
2017-Apr-05 06:30N 51°16' E 003°50'0 0.0
2017-Apr-05 06:00N 51°16' E 003°50'0 0.0
2017-Apr-05 05:30N 51°16' E 003°50'0 0.0
2017-Apr-05 05:00N 51°16' E 003°50'0 0.0
2017-Apr-05 04:30N 51°16' E 003°50'0 0.0
2017-Apr-05 04:00N 51°16' E 003°50'0 0.0
2017-Apr-05 03:30N 51°16' E 003°50'0 0.0
2017-Apr-05 03:00N 51°16' E 003°50'0 0.0
2017-Apr-05 02:29N 51°16' E 003°50'0 0.0
2017-Apr-05 01:58N 51°16' E 003°50'0 0.0
2017-Apr-05 01:30N 51°16' E 003°50'0 0.0
2017-Apr-05 01:00N 51°16' E 003°50'0 0.0
2017-Apr-05 00:29N 51°16' E 003°50'0 0.0
2017-Apr-05 00:00N 51°16' E 003°50'0 0.0
2017-Apr-04 23:29N 51°16' E 003°50'0 0.0
2017-Apr-04 22:59N 51°16' E 003°50'0 0.0
2017-Apr-04 22:29N 51°16' E 003°50'0 0.0
2017-Apr-04 22:00N 51°16' E 003°50'0 0.0
2017-Apr-04 21:30N 51°16' E 003°50'2 3.3
2017-Apr-04 21:00N 51°15' E 003°49'4 3.4
2017-Apr-04 19:54N 51°11' E 003°48'7 4.6
2017-Apr-04 18:26N 51°18' E 003°50'3 6.1
2017-Apr-04 18:00N 51°20' E 003°49'1 2.1
2017-Apr-04 17:31N 51°21' E 003°48'1 1.9
2017-Apr-04 17:00N 51°20' E 003°49'0 0.0
2017-Apr-04 16:30N 51°20' E 003°49'0 0.0
2017-Apr-04 16:01N 51°20' E 003°49'0 0.0
2017-Apr-04 15:31N 51°20' E 003°49'0 0.0
2017-Apr-04 15:00N 51°20' E 003°49'0 0.0
2017-Apr-04 14:29N 51°20' E 003°49'0 0.0
2017-Apr-04 13:30N 51°20' E 003°49'0 0.0
2017-Apr-04 13:00N 51°20' E 003°49'0 0.0
2017-Apr-04 12:30N 51°20' E 003°49'0 0.0
2017-Apr-04 12:00N 51°20' E 003°49'0 0.0
2017-Apr-04 11:30N 51°20' E 003°49'  
Track history (hours):
 
Tides and Currents Weather Stations Pressure Air Temp Water Temp Dewpoint Dewpoint Depression Visibility Wind Speed Wind Dir Waves Ship Positions

Cavok V

Last reported at 2017-Apr-06 18:00 UTC. Time now 2017-Jul-26 10:29 UTC.
Position N 51°16' E 003°50'.
Warning: this ship's position is months out of date.

Type: Sailing vessel. MMSI: 244690846.

Date/timePositionNaut miles runAvg speedWind from/ knotsBaromVisibWave heightAir tempDewpointWater temp
2017-Apr-06 18:00N 51°16' E 003°50'0 0.0
2017-Apr-06 17:30N 51°16' E 003°50'0 0.0
2017-Apr-06 17:00N 51°16' E 003°50'0 0.1
2017-Apr-06 15:27N 51°16' E 003°50'0 0.0
2017-Apr-06 14:56N 51°16' E 003°50'0 0.2
2017-Apr-06 14:27N 51°16' E 003°50'0 0.0
2017-Apr-06 13:30N 51°16' E 003°50'0 0.0
2017-Apr-05 15:12N 51°16' E 003°50'0 0.0
2017-Apr-05 14:58N 51°16' E 003°50'0 0.0
2017-Apr-05 14:00N 51°16' E 003°50'0 0.0
2017-Apr-05 13:30N 51°16' E 003°50'0 0.0
2017-Apr-05 13:00N 51°16' E 003°50'0 0.0
2017-Apr-05 12:29N 51°16' E 003°50'0 0.0
2017-Apr-05 12:00N 51°16' E 003°50'0 0.0
2017-Apr-05 11:30N 51°16' E 003°50'0 0.0
2017-Apr-05 11:00N 51°16' E 003°50'0 0.0
2017-Apr-05 10:30N 51°16' E 003°50'0 0.0
2017-Apr-05 10:00N 51°16' E 003°50'0 0.0
2017-Apr-05 09:30N 51°16' E 003°50'0 0.0
2017-Apr-05 09:00N 51°16' E 003°50'0 0.0
2017-Apr-05 08:30N 51°16' E 003°50'0 0.0
2017-Apr-05 08:00N 51°16' E 003°50'0 0.0
2017-Apr-05 07:30N 51°16' E 003°50'0 0.0
2017-Apr-05 07:00N 51°16' E 003°50'0 0.0
2017-Apr-05 06:30N 51°16' E 003°50'0 0.0
2017-Apr-05 06:00N 51°16' E 003°50'0 0.0
2017-Apr-05 05:30N 51°16' E 003°50'0 0.0
2017-Apr-05 05:00N 51°16' E 003°50'0 0.0
2017-Apr-05 04:30N 51°16' E 003°50'0 0.0
2017-Apr-05 04:00N 51°16' E 003°50'0 0.0
2017-Apr-05 03:30N 51°16' E 003°50'0 0.0
2017-Apr-05 03:00N 51°16' E 003°50'0 0.0
2017-Apr-05 02:29N 51°16' E 003°50'0 0.0
2017-Apr-05 01:58N 51°16' E 003°50'0 0.0
2017-Apr-05 01:30N 51°16' E 003°50'0 0.0
2017-Apr-05 01:00N 51°16' E 003°50'0 0.0
2017-Apr-05 00:29N 51°16' E 003°50'0 0.0
2017-Apr-05 00:00N 51°16' E 003°50'0 0.0
2017-Apr-04 23:29N 51°16' E 003°50'0 0.0
2017-Apr-04 22:59N 51°16' E 003°50'0 0.0
2017-Apr-04 22:29N 51°16' E 003°50'0 0.0
2017-Apr-04 22:00N 51°16' E 003°50'0 0.0
2017-Apr-04 21:30N 51°16' E 003°50'2 3.3
2017-Apr-04 21:00N 51°15' E 003°49'4 3.4
2017-Apr-04 19:54N 51°11' E 003°48'7 4.6
2017-Apr-04 18:26N 51°18' E 003°50'3 6.1
2017-Apr-04 18:00N 51°20' E 003°49'1 2.1
2017-Apr-04 17:31N 51°21' E 003°48'1 1.9
2017-Apr-04 17:00N 51°20' E 003°49'0 0.0
2017-Apr-04 16:30N 51°20' E 003°49'0 0.0
2017-Apr-04 16:01N 51°20' E 003°49'0 0.0
2017-Apr-04 15:31N 51°20' E 003°49'0 0.0
2017-Apr-04 15:00N 51°20' E 003°49'0 0.0
2017-Apr-04 14:29N 51°20' E 003°49'0 0.0
2017-Apr-04 13:30N 51°20' E 003°49'0 0.0
2017-Apr-04 13:00N 51°20' E 003°49'0 0.0
2017-Apr-04 12:30N 51°20' E 003°49'0 0.0
2017-Apr-04 12:00N 51°20' E 003°49'0 0.0
2017-Apr-04 11:30N 51°20' E 003°49'  

Dump ship's entire track history